PEGAS1 EGJB-EGJB

Flight info

Callsign PEGAS1
Flight time 0h 2m
Altitude 2500
Route VFR
Aircraft H47/L-SDFGIRY/L

Departure

Time 2026-04-26 13:51
Airport Guernsey Airport (EGJB)

Arrival

Time 2026-04-26 13:53
Airport Guernsey Airport (EGJB)
Time Latitude Longitude Altitude Speed Heading
2026-04-26 13:45 49.43351 -2.59161 328 ft 0 kts 22°
2026-04-26 13:50 49.43353 -2.59162 333 ft 5 kts 22°
2026-04-26 13:51 49.43512 -2.59091 520 ft 59 kts 40°
2026-04-26 13:51 49.43499 -2.58289 946 ft 86 kts 85°
2026-04-26 13:51 49.43608 -2.57225 1250 ft 120 kts 81°
2026-04-26 13:51 49.43669 -2.55965 1732 ft 120 kts 86°
2026-04-26 13:52 49.43759 -2.54556 1724 ft 148 kts 84°
2026-04-26 13:52 49.43683 -2.53079 1976 ft 126 kts 122°
2026-04-26 13:52 49.42932 -2.52693 2236 ft 140 kts 219°
2026-04-26 13:52 49.42164 -2.53891 1641 ft 176 kts 225°
2026-04-26 13:53 49.41534 -2.54976 1605 ft 85 kts 173°
2026-04-26 13:53 49.43351 -2.59161 328 ft 0 kts 22°
2026-04-26 14:00 49.43412 -2.59200 328 ft 4 kts 358°
2026-04-26 14:00 49.43413 -2.59200 328 ft 0 kts 358°
2026-04-26 14:01 49.43415 -2.59200 328 ft 0 kts 357°
2026-04-26 14:01 49.43418 -2.59200 328 ft 0 kts 357°
2026-04-26 14:01 49.43423 -2.59200 329 ft 1 kts 356°
2026-04-26 14:01 49.43438 -2.59202 329 ft 3 kts 356°
2026-04-26 14:02 49.43474 -2.59213 426 ft 17 kts 19°
2026-04-26 14:02 49.43509 -2.58798 601 ft 80 kts 82°
2026-04-26 14:02 49.43572 -2.57691 691 ft 131 kts 83°
2026-04-26 14:02 49.43716 -2.56316 877 ft 145 kts 77°
2026-04-26 14:03 49.43903 -2.54635 532 ft 166 kts 85°
2026-04-26 14:03 49.43779 -2.53004 551 ft 150 kts 121°
2026-04-26 14:03 49.43021 -2.52204 691 ft 92 kts 171°
2026-04-26 14:03 49.42351 -2.51860 758 ft 124 kts 189°
2026-04-26 14:04 49.41740 -2.52757 1052 ft 129 kts 247°
2026-04-26 14:04 49.41508 -2.54120 1292 ft 135 kts 264°
2026-04-26 14:04 49.41412 -2.55582 1433 ft 146 kts 264°
2026-04-26 14:04 49.41325 -2.57279 1254 ft 165 kts 265°
2026-04-26 14:05 49.41256 -2.59063 1223 ft 165 kts 265°
2026-04-26 14:05 49.41188 -2.60784 1139 ft 170 kts 260°
2026-04-26 14:05 49.41220 -2.62309 538 ft 59 kts
2026-04-26 14:05 49.41273 -2.62513 6 ft 3 kts 320°
2026-04-26 14:06 49.43363 -2.59161 338 ft 7 kts 28°
2026-04-26 14:06 49.43475 -2.59207 421 ft 47 kts 14°
2026-04-26 14:06 49.44085 -2.59342 576 ft 115 kts 344°
2026-04-26 14:06 49.44968 -2.59760 673 ft 147 kts 348°
2026-04-26 14:07 49.45939 -2.60133 917 ft 152 kts 346°
2026-04-26 14:07 49.47069 -2.60548 581 ft 178 kts 11°
2026-04-26 14:07 49.47664 -2.60408 1032 ft 37 kts 335°
2026-04-26 14:07 49.47901 -2.60015 1429 ft 71 kts 64°
2026-04-26 14:08 49.48277 -2.58938 979 ft 158 kts 68°
2026-04-26 14:08 49.48679 -2.57273 583 ft 176 kts 77°
2026-04-26 14:08 49.48942 -2.55503 425 ft 173 kts 79°
2026-04-26 14:08 49.49167 -2.53712 413 ft 163 kts 78°
2026-04-26 14:09 49.49369 -2.51973 333 ft 165 kts 80°
2026-04-26 14:09 49.49169 -2.50421 607 ft 144 kts 137°
2026-04-26 14:09 49.48278 -2.50400 1077 ft 137 kts 189°
2026-04-26 14:09 49.47274 -2.50919 1034 ft 155 kts 192°
2026-04-26 14:10 49.46214 -2.51463 1115 ft 158 kts 190°
2026-04-26 14:10 49.45101 -2.51990 1048 ft 167 kts 192°
2026-04-26 14:10 49.43946 -2.52512 884 ft 175 kts 191°
2026-04-26 14:10 49.42826 -2.53094 1045 ft 158 kts 207°
2026-04-26 14:11 49.41859 -2.56406 509 ft 196 kts 254°
2026-04-26 14:11 49.41526 -2.58295 441 ft 185 kts 258°
2026-04-26 14:11 49.41365 -2.59997 974 ft 149 kts 264°
2026-04-26 14:12 49.41435 -2.61580 1256 ft 152 kts 287°
2026-04-26 14:12 49.42076 -2.62821 978 ft 147 kts 347°
2026-04-26 14:12 49.43019 -2.62749 901 ft 147 kts 34°
2026-04-26 14:12 49.43489 -2.61480 554 ft 138 kts 82°
2026-04-26 14:13 49.43509 -2.59879 323 ft 17 kts 88°
2026-04-26 14:13 49.43513 -2.59746 326 ft 7 kts 84°
2026-04-26 14:13 49.43516 -2.59711 327 ft 0 kts 83°
2026-04-26 14:14 49.43516 -2.59712 327 ft 0 kts 79°
2026-04-26 14:14 49.43505 -2.59728 326 ft 6 kts 262°
2026-04-26 14:14 49.43487 -2.59805 325 ft 9 kts 192°
2026-04-26 14:14 49.43422 -2.59810 325 ft 9 kts 182°
2026-04-26 14:15 49.43358 -2.59799 325 ft 8 kts 152°
2026-04-26 14:15 49.43347 -2.59727 326 ft 6 kts 67°
2026-04-26 14:15 49.43359 -2.59670 328 ft 4 kts 82°
2026-04-26 14:15 49.43361 -2.59632 328 ft 2 kts 86°
2026-04-26 14:16 49.43361 -2.59610 329 ft 1 kts 89°
2026-04-26 14:16 49.43361 -2.59581 330 ft 4 kts 92°
2026-04-26 14:16 49.43363 -2.59494 331 ft 9 kts 85°
2026-04-26 14:16 49.43368 -2.59377 331 ft 13 kts 87°
2026-04-26 14:17 49.43374 -2.59226 328 ft 12 kts 86°
2026-04-26 14:17 49.43378 -2.59124 327 ft 6 kts 81°
2026-04-26 14:17 49.43380 -2.59085 328 ft 4 kts 145°
2026-04-26 14:17 49.43342 -2.59092 327 ft 6 kts 244°
2026-04-26 14:18 49.43340 -2.59097 327 ft 0 kts 253°